sensor_id;sensor_type;location;lat;lon;timestamp;temperature;humidity
5520;DHT22;2782;52.362;10.012;2024-01-06T00:00:47;20.00;59.20
5520;DHT22;2782;52.362;10.012;2024-01-06T00:01:51;20.00;58.70
5520;DHT22;2782;52.362;10.012;2024-01-06T00:02:52;20.00;58.70
5520;DHT22;2782;52.362;10.012;2024-01-06T00:03:53;20.00;58.70
5520;DHT22;2782;52.362;10.012;2024-01-06T00:04:54;19.90;58.60
5520;DHT22;2782;52.362;10.012;2024-01-06T00:05:56;19.90;58.60
5520;DHT22;2782;52.362;10.012;2024-01-06T00:06:57;20.00;58.70
5520;DHT22;2782;52.362;10.012;2024-01-06T00:07:58;19.90;58.60
5520;DHT22;2782;52.362;10.012;2024-01-06T00:08:59;19.90;58.60
5520;DHT22;2782;52.362;10.012;2024-01-06T00:10:01;19.90;58.60
5520;DHT22;2782;52.362;10.012;2024-01-06T00:11:01;19.90;59.20
5520;DHT22;2782;52.362;10.012;2024-01-06T00:12:05;19.90;58.60
5520;DHT22;2782;52.362;10.012;2024-01-06T00:13:06;19.90;58.60
5520;DHT22;2782;52.362;10.012;2024-01-06T00:14:07;19.90;58.60
5520;DHT22;2782;52.362;10.012;2024-01-06T00:15:08;19.90;58.60
5520;DHT22;2782;52.362;10.012;2024-01-06T00:16:11;19.90;58.60
5520;DHT22;2782;52.362;10.012;2024-01-06T00:17:13;19.90;58.60
5520;DHT22;2782;52.362;10.012;2024-01-06T00:18:14;19.90;58.60
5520;DHT22;2782;52.362;10.012;2024-01-06T00:19:15;19.90;58.60
5520;DHT22;2782;52.362;10.012;2024-01-06T00:20:18;19.90;58.60
5520;DHT22;2782;52.362;10.012;2024-01-06T00:21:18;19.90;58.60
5520;DHT22;2782;52.362;10.012;2024-01-06T00:22:20;19.80;58.50
5520;DHT22;2782;52.362;10.012;2024-01-06T00:23:21;19.80;58.50
5520;DHT22;2782;52.362;10.012;2024-01-06T00:24:23;19.80;58.60
5520;DHT22;2782;52.362;10.012;2024-01-06T00:25:23;19.80;58.60
5520;DHT22;2782;52.362;10.012;2024-01-06T00:26:25;19.80;58.50
5520;DHT22;2782;52.362;10.012;2024-01-06T00:27:26;19.80;58.60
5520;DHT22;2782;52.362;10.012;2024-01-06T00:28:26;19.80;58.60
5520;DHT22;2782;52.362;10.012;2024-01-06T00:29:28;19.80;58.50
5520;DHT22;2782;52.362;10.012;2024-01-06T00:30:29;19.80;58.50
5520;DHT22;2782;52.362;10.012;2024-01-06T00:31:30;19.80;58.50
5520;DHT22;2782;52.362;10.012;2024-01-06T00:32:32;19.80;58.50
5520;DHT22;2782;52.362;10.012;2024-01-06T00:33:33;19.80;58.50
5520;DHT22;2782;52.362;10.012;2024-01-06T00:34:35;19.80;58.60
5520;DHT22;2782;52.362;10.012;2024-01-06T00:35:36;19.80;58.60
5520;DHT22;2782;52.362;10.012;2024-01-06T00:36:37;19.80;58.60
5520;DHT22;2782;52.362;10.012;2024-01-06T00:37:38;19.80;58.60
5520;DHT22;2782;52.362;10.012;2024-01-06T00:38:40;19.70;58.50
5520;DHT22;2782;52.362;10.012;2024-01-06T00:39:41;19.70;58.50
5520;DHT22;2782;52.362;10.012;2024-01-06T00:40:42;19.70;58.50
5520;DHT22;2782;52.362;10.012;2024-01-06T00:41:43;19.70;58.50
5520;DHT22;2782;52.362;10.012;2024-01-06T00:42:45;19.70;58.50
5520;DHT22;2782;52.362;10.012;2024-01-06T00:43:45;19.70;58.50
5520;DHT22;2782;52.362;10.012;2024-01-06T00:44:47;19.70;58.50
5520;DHT22;2782;52.362;10.012;2024-01-06T00:45:48;19.70;58.50
5520;DHT22;2782;52.362;10.012;2024-01-06T00:46:50;19.70;58.50
5520;DHT22;2782;52.362;10.012;2024-01-06T00:47:52;19.70;58.50
5520;DHT22;2782;52.362;10.012;2024-01-06T00:48:54;19.70;58.50
5520;DHT22;2782;52.362;10.012;2024-01-06T00:49:54;19.70;58.50
5520;DHT22;2782;52.362;10.012;2024-01-06T00:50:56;19.70;58.50
5520;DHT22;2782;52.362;10.012;2024-01-06T00:51:57;19.70;58.60
5520;DHT22;2782;52.362;10.012;2024-01-06T00:52:58;19.70;58.60
5520;DHT22;2782;52.362;10.012;2024-01-06T00:53:59;19.70;58.60
5520;DHT22;2782;52.362;10.012;2024-01-06T00:55:01;19.70;58.60
5520;DHT22;2782;52.362;10.012;2024-01-06T00:56:02;19.70;58.60
5520;DHT22;2782;52.362;10.012;2024-01-06T00:57:04;19.70;58.60
5520;DHT22;2782;52.362;10.012;2024-01-06T00:58:05;19.70;58.60
5520;DHT22;2782;52.362;10.012;2024-01-06T00:59:07;19.70;58.60
5520;DHT22;2782;52.362;10.012;2024-01-06T01:00:08;19.60;58.60
5520;DHT22;2782;52.362;10.012;2024-01-06T01:01:10;19.60;58.60
5520;DHT22;2782;52.362;10.012;2024-01-06T01:02:10;19.70;58.60
5520;DHT22;2782;52.362;10.012;2024-01-06T01:03:13;19.60;58.60
5520;DHT22;2782;52.362;10.012;2024-01-06T01:04:14;19.60;58.60
5520;DHT22;2782;52.362;10.012;2024-01-06T01:05:15;19.60;58.60
5520;DHT22;2782;52.362;10.012;2024-01-06T01:06:17;19.60;58.60
5520;DHT22;2782;52.362;10.012;2024-01-06T01:07:17;19.70;58.70
5520;DHT22;2782;52.362;10.012;2024-01-06T01:08:19;19.60;58.60
5520;DHT22;2782;52.362;10.012;2024-01-06T01:09:20;19.60;58.60
5520;DHT22;2782;52.362;10.012;2024-01-06T01:10:22;19.60;58.70
5520;DHT22;2782;52.362;10.012;2024-01-06T01:11:23;19.60;58.70
5520;DHT22;2782;52.362;10.012;2024-01-06T01:12:24;19.60;58.70
5520;DHT22;2782;52.362;10.012;2024-01-06T01:13:25;19.60;58.70
5520;DHT22;2782;52.362;10.012;2024-01-06T01:14:27;19.60;58.70
5520;DHT22;2782;52.362;10.012;2024-01-06T01:15:28;19.60;58.70
5520;DHT22;2782;52.362;10.012;2024-01-06T01:16:28;19.60;58.70
5520;DHT22;2782;52.362;10.012;2024-01-06T01:17:32;19.60;58.70
5520;DHT22;2782;52.362;10.012;2024-01-06T01:18:34;19.60;58.70
5520;DHT22;2782;52.362;10.012;2024-01-06T01:19:36;19.60;58.70
5520;DHT22;2782;52.362;10.012;2024-01-06T01:20:37;19.60;58.70
5520;DHT22;2782;52.362;10.012;2024-01-06T01:21:39;19.60;58.70
5520;DHT22;2782;52.362;10.012;2024-01-06T01:22:39;19.60;58.70
5520;DHT22;2782;52.362;10.012;2024-01-06T01:23:41;19.50;58.70
5520;DHT22;2782;52.362;10.012;2024-01-06T01:24:42;19.50;58.60
5520;DHT22;2782;52.362;10.012;2024-01-06T01:25:44;19.60;58.70
5520;DHT22;2782;52.362;10.012;2024-01-06T01:26:45;19.50;58.80
5520;DHT22;2782;52.362;10.012;2024-01-06T01:27:47;19.50;59.00
5520;DHT22;2782;52.362;10.012;2024-01-06T01:28:47;19.60;59.20
5520;DHT22;2782;52.362;10.012;2024-01-06T01:29:49;19.50;59.30
5520;DHT22;2782;52.362;10.012;2024-01-06T01:30:53;19.50;59.60
5520;DHT22;2782;52.362;10.012;2024-01-06T01:31:54;19.50;59.90
5520;DHT22;2782;52.362;10.012;2024-01-06T01:32:55;19.50;59.80
5520;DHT22;2782;52.362;10.012;2024-01-06T01:33:58;19.50;60.30
5520;DHT22;2782;52.362;10.012;2024-01-06T01:34:59;19.50;60.20
5520;DHT22;2782;52.362;10.012;2024-01-06T01:36:01;19.50;60.20
5520;DHT22;2782;52.362;10.012;2024-01-06T01:37:01;19.50;60.50
5520;DHT22;2782;52.362;10.012;2024-01-06T01:38:03;19.50;60.60
5520;DHT22;2782;52.362;10.012;2024-01-06T01:39:04;19.50;60.60
5520;DHT22;2782;52.362;10.012;2024-01-06T01:40:06;19.50;60.70
5520;DHT22;2782;52.362;10.012;2024-01-06T01:41:08;19.50;60.70
5520;DHT22;2782;52.362;10.012;2024-01-06T01:42:09;19.40;60.70
5520;DHT22;2782;52.362;10.012;2024-01-06T01:43:16;19.50;60.80
5520;DHT22;2782;52.362;10.012;2024-01-06T01:44:17;19.40;60.70
5520;DHT22;2782;52.362;10.012;2024-01-06T01:45:19;19.40;60.90
5520;DHT22;2782;52.362;10.012;2024-01-06T01:46:20;19.40;60.90
5520;DHT22;2782;52.362;10.012;2024-01-06T01:47:21;19.40;60.80
5520;DHT22;2782;52.362;10.012;2024-01-06T01:48:22;19.40;60.70
5520;DHT22;2782;52.362;10.012;2024-01-06T01:49:26;19.40;60.80
5520;DHT22;2782;52.362;10.012;2024-01-06T01:50:28;19.40;60.80
5520;DHT22;2782;52.362;10.012;2024-01-06T01:51:34;19.40;60.80
5520;DHT22;2782;52.362;10.012;2024-01-06T01:52:35;19.40;60.80
5520;DHT22;2782;52.362;10.012;2024-01-06T01:53:38;19.40;60.80
5520;DHT22;2782;52.362;10.012;2024-01-06T01:54:39;19.40;60.80
5520;DHT22;2782;52.362;10.012;2024-01-06T01:55:42;19.40;60.80
5520;DHT22;2782;52.362;10.012;2024-01-06T01:56:43;19.40;60.80
5520;DHT22;2782;52.362;10.012;2024-01-06T01:57:46;19.40;60.70
5520;DHT22;2782;52.362;10.012;2024-01-06T01:58:47;19.40;60.70
5520;DHT22;2782;52.362;10.012;2024-01-06T01:59:49;19.40;60.80
5520;DHT22;2782;52.362;10.012;2024-01-06T02:00:50;19.40;60.80
5520;DHT22;2782;52.362;10.012;2024-01-06T02:01:52;19.40;60.70
5520;DHT22;2782;52.362;10.012;2024-01-06T02:02:53;19.40;60.60
5520;DHT22;2782;52.362;10.012;2024-01-06T02:03:54;19.40;60.60
5520;DHT22;2782;52.362;10.012;2024-01-06T02:04:57;19.40;60.60
5520;DHT22;2782;52.362;10.012;2024-01-06T02:05:58;19.40;60.70
5520;DHT22;2782;52.362;10.012;2024-01-06T02:06:59;19.30;60.60
5520;DHT22;2782;52.362;10.012;2024-01-06T02:08:00;19.40;60.70
5520;DHT22;2782;52.362;10.012;2024-01-06T02:09:01;19.30;60.50
5520;DHT22;2782;52.362;10.012;2024-01-06T02:10:04;19.30;60.50
5520;DHT22;2782;52.362;10.012;2024-01-06T02:11:05;19.30;60.50
5520;DHT22;2782;52.362;10.012;2024-01-06T02:12:07;19.30;60.30
5520;DHT22;2782;52.362;10.012;2024-01-06T02:13:09;19.30;60.30
5520;DHT22;2782;52.362;10.012;2024-01-06T02:14:10;19.30;60.30
5520;DHT22;2782;52.362;10.012;2024-01-06T02:15:12;19.30;60.30
5520;DHT22;2782;52.362;10.012;2024-01-06T02:16:13;19.30;60.30
5520;DHT22;2782;52.362;10.012;2024-01-06T02:17:15;19.30;60.30
5520;DHT22;2782;52.362;10.012;2024-01-06T02:18:16;19.30;60.20
5520;DHT22;2782;52.362;10.012;2024-01-06T02:19:18;19.30;60.20
5520;DHT22;2782;52.362;10.012;2024-01-06T02:20:21;19.30;60.20
5520;DHT22;2782;52.362;10.012;2024-01-06T02:21:24;19.30;60.10
5520;DHT22;2782;52.362;10.012;2024-01-06T02:22:30;19.30;60.10
5520;DHT22;2782;52.362;10.012;2024-01-06T02:23:31;19.30;60.10
5520;DHT22;2782;52.362;10.012;2024-01-06T02:24:35;19.30;60.10
5520;DHT22;2782;52.362;10.012;2024-01-06T02:25:36;19.20;60.00
5520;DHT22;2782;52.362;10.012;2024-01-06T02:26:38;19.20;60.00
5520;DHT22;2782;52.362;10.012;2024-01-06T02:27:38;19.30;60.10
5520;DHT22;2782;52.362;10.012;2024-01-06T02:28:40;19.20;60.00
5520;DHT22;2782;52.362;10.012;2024-01-06T02:29:41;19.20;60.00
5520;DHT22;2782;52.362;10.012;2024-01-06T02:30:43;19.20;59.90
5520;DHT22;2782;52.362;10.012;2024-01-06T02:31:44;19.20;59.90
5520;DHT22;2782;52.362;10.012;2024-01-06T02:32:45;19.20;59.90
5520;DHT22;2782;52.362;10.012;2024-01-06T02:33:46;19.20;59.90
5520;DHT22;2782;52.362;10.012;2024-01-06T02:34:48;19.20;59.80
5520;DHT22;2782;52.362;10.012;2024-01-06T02:35:49;19.20;59.90
5520;DHT22;2782;52.362;10.012;2024-01-06T02:36:50;19.20;59.90
5520;DHT22;2782;52.362;10.012;2024-01-06T02:37:53;19.20;59.80
5520;DHT22;2782;52.362;10.012;2024-01-06T02:38:55;19.20;59.80
5520;DHT22;2782;52.362;10.012;2024-01-06T02:39:55;19.20;60.50
5520;DHT22;2782;52.362;10.012;2024-01-06T02:40:57;19.20;59.70
5520;DHT22;2782;52.362;10.012;2024-01-06T02:41:58;19.20;59.70
5520;DHT22;2782;52.362;10.012;2024-01-06T02:42:59;19.20;59.80
5520;DHT22;2782;52.362;10.012;2024-01-06T02:44:00;19.10;59.70
5520;DHT22;2782;52.362;10.012;2024-01-06T02:45:03;19.10;59.70
5520;DHT22;2782;52.362;10.012;2024-01-06T02:46:04;19.20;59.70
5520;DHT22;2782;52.362;10.012;2024-01-06T02:47:06;19.10;59.60
5520;DHT22;2782;52.362;10.012;2024-01-06T02:48:06;19.10;59.60
5520;DHT22;2782;52.362;10.012;2024-01-06T02:49:08;19.20;59.70
5520;DHT22;2782;52.362;10.012;2024-01-06T02:50:09;19.20;59.70
5520;DHT22;2782;52.362;10.012;2024-01-06T02:51:11;19.10;59.60
5520;DHT22;2782;52.362;10.012;2024-01-06T02:52:12;19.10;59.50
5520;DHT22;2782;52.362;10.012;2024-01-06T02:53:15;19.10;59.50
5520;DHT22;2782;52.362;10.012;2024-01-06T02:54:16;19.10;59.50
5520;DHT22;2782;52.362;10.012;2024-01-06T02:55:18;19.10;59.60
5520;DHT22;2782;52.362;10.012;2024-01-06T02:56:18;19.10;59.60
5520;DHT22;2782;52.362;10.012;2024-01-06T02:57:19;19.10;59.50
5520;DHT22;2782;52.362;10.012;2024-01-06T02:58:21;19.10;59.60
5520;DHT22;2782;52.362;10.012;2024-01-06T02:59:21;19.10;59.50
5520;DHT22;2782;52.362;10.012;2024-01-06T03:00:23;19.10;59.50
5520;DHT22;2782;52.362;10.012;2024-01-06T03:01:24;19.10;59.40
5520;DHT22;2782;52.362;10.012;2024-01-06T03:05:36;19.10;59.60
5520;DHT22;2782;52.362;10.012;2024-01-06T03:06:37;19.00;59.50
5520;DHT22;2782;52.362;10.012;2024-01-06T03:07:39;19.00;59.50
5520;DHT22;2782;52.362;10.012;2024-01-06T03:08:40;19.00;59.50
5520;DHT22;2782;52.362;10.012;2024-01-06T03:09:42;19.00;59.50
5520;DHT22;2782;52.362;10.012;2024-01-06T03:10:44;19.00;59.40
5520;DHT22;2782;52.362;10.012;2024-01-06T03:11:45;19.00;59.40
5520;DHT22;2782;52.362;10.012;2024-01-06T03:12:46;19.00;59.50
5520;DHT22;2782;52.362;10.012;2024-01-06T03:13:47;19.00;59.50
5520;DHT22;2782;52.362;10.012;2024-01-06T03:14:48;19.00;59.50
5520;DHT22;2782;52.362;10.012;2024-01-06T03:15:49;19.00;59.50
5520;DHT22;2782;52.362;10.012;2024-01-06T03:16:50;19.00;59.50
5520;DHT22;2782;52.362;10.012;2024-01-06T03:17:51;19.00;59.40
5520;DHT22;2782;52.362;10.012;2024-01-06T03:18:52;19.00;59.40
5520;DHT22;2782;52.362;10.012;2024-01-06T03:19:53;19.00;59.40
5520;DHT22;2782;52.362;10.012;2024-01-06T03:20:54;19.00;59.40
5520;DHT22;2782;52.362;10.012;2024-01-06T03:21:54;19.00;59.40
5520;DHT22;2782;52.362;10.012;2024-01-06T03:22:56;19.00;59.40
5520;DHT22;2782;52.362;10.012;2024-01-06T03:23:58;19.00;59.40
5520;DHT22;2782;52.362;10.012;2024-01-06T03:25:00;19.00;59.40
5520;DHT22;2782;52.362;10.012;2024-01-06T03:26:05;19.00;59.40
5520;DHT22;2782;52.362;10.012;2024-01-06T03:27:07;19.00;59.40
5520;DHT22;2782;52.362;10.012;2024-01-06T03:28:09;19.00;59.40
5520;DHT22;2782;52.362;10.012;2024-01-06T03:29:10;19.00;59.30
5520;DHT22;2782;52.362;10.012;2024-01-06T03:30:12;19.00;59.30
5520;DHT22;2782;52.362;10.012;2024-01-06T03:31:13;18.90;59.20
5520;DHT22;2782;52.362;10.012;2024-01-06T03:32:15;19.00;59.40
5520;DHT22;2782;52.362;10.012;2024-01-06T03:33:15;19.00;59.40
5520;DHT22;2782;52.362;10.012;2024-01-06T03:34:17;18.90;59.20
5520;DHT22;2782;52.362;10.012;2024-01-06T03:35:17;18.90;59.20
5520;DHT22;2782;52.362;10.012;2024-01-06T03:36:19;18.90;59.20
5520;DHT22;2782;52.362;10.012;2024-01-06T03:37:20;18.90;59.20
5520;DHT22;2782;52.362;10.012;2024-01-06T03:38:22;19.00;59.30
5520;DHT22;2782;52.362;10.012;2024-01-06T03:39:24;18.90;59.20
5520;DHT22;2782;52.362;10.012;2024-01-06T03:40:25;18.90;59.20
5520;DHT22;2782;52.362;10.012;2024-01-06T03:41:27;18.90;59.10
5520;DHT22;2782;52.362;10.012;2024-01-06T03:42:28;18.90;59.10
5520;DHT22;2782;52.362;10.012;2024-01-06T03:43:29;18.90;59.10
5520;DHT22;2782;52.362;10.012;2024-01-06T03:44:30;18.90;59.10
5520;DHT22;2782;52.362;10.012;2024-01-06T03:45:34;18.90;59.10
5520;DHT22;2782;52.362;10.012;2024-01-06T03:46:35;18.90;59.10
5520;DHT22;2782;52.362;10.012;2024-01-06T03:47:36;18.90;59.10
5520;DHT22;2782;52.362;10.012;2024-01-06T03:48:37;18.90;59.10
5520;DHT22;2782;52.362;10.012;2024-01-06T03:49:39;18.90;59.10
5520;DHT22;2782;52.362;10.012;2024-01-06T03:50:39;18.90;59.10
5520;DHT22;2782;52.362;10.012;2024-01-06T03:51:41;18.90;59.10
5520;DHT22;2782;52.362;10.012;2024-01-06T03:52:41;18.90;59.10
5520;DHT22;2782;52.362;10.012;2024-01-06T03:53:43;18.90;59.10
5520;DHT22;2782;52.362;10.012;2024-01-06T03:54:45;18.90;59.10
5520;DHT22;2782;52.362;10.012;2024-01-06T03:55:46;18.90;59.10
5520;DHT22;2782;52.362;10.012;2024-01-06T03:56:47;18.90;59.60
5520;DHT22;2782;52.362;10.012;2024-01-06T03:57:48;18.90;59.00
5520;DHT22;2782;52.362;10.012;2024-01-06T03:58:49;18.80;59.50
5520;DHT22;2782;52.362;10.012;2024-01-06T03:59:50;18.80;59.00
5520;DHT22;2782;52.362;10.012;2024-01-06T04:00:51;18.90;59.00
5520;DHT22;2782;52.362;10.012;2024-01-06T04:01:52;18.90;59.00
5520;DHT22;2782;52.362;10.012;2024-01-06T04:02:53;18.80;58.90
5520;DHT22;2782;52.362;10.012;2024-01-06T04:03:53;18.80;58.90
5520;DHT22;2782;52.362;10.012;2024-01-06T04:04:55;18.80;58.90
5520;DHT22;2782;52.362;10.012;2024-01-06T04:05:55;18.80;58.90
5520;DHT22;2782;52.362;10.012;2024-01-06T04:06:57;18.80;58.90
5520;DHT22;2782;52.362;10.012;2024-01-06T04:07:58;18.80;58.90
5520;DHT22;2782;52.362;10.012;2024-01-06T04:08:58;18.80;58.90
5520;DHT22;2782;52.362;10.012;2024-01-06T04:10:01;18.80;58.90
5520;DHT22;2782;52.362;10.012;2024-01-06T04:11:02;18.80;58.90
5520;DHT22;2782;52.362;10.012;2024-01-06T04:12:04;18.80;58.90
5520;DHT22;2782;52.362;10.012;2024-01-06T04:13:05;18.80;58.90
5520;DHT22;2782;52.362;10.012;2024-01-06T04:14:06;18.80;58.90
5520;DHT22;2782;52.362;10.012;2024-01-06T04:15:08;18.80;58.90
5520;DHT22;2782;52.362;10.012;2024-01-06T04:16:09;18.80;58.90
5520;DHT22;2782;52.362;10.012;2024-01-06T04:17:10;18.80;58.80
5520;DHT22;2782;52.362;10.012;2024-01-06T04:18:11;18.80;58.90
5520;DHT22;2782;52.362;10.012;2024-01-06T04:19:12;18.80;58.90
5520;DHT22;2782;52.362;10.012;2024-01-06T04:20:15;18.70;58.80
5520;DHT22;2782;52.362;10.012;2024-01-06T04:21:16;18.80;58.90
5520;DHT22;2782;52.362;10.012;2024-01-06T04:22:17;18.70;58.80
5520;DHT22;2782;52.362;10.012;2024-01-06T04:23:18;18.70;58.70
5520;DHT22;2782;52.362;10.012;2024-01-06T04:24:19;18.80;58.80
5520;DHT22;2782;52.362;10.012;2024-01-06T04:25:21;18.80;58.80
5520;DHT22;2782;52.362;10.012;2024-01-06T04:26:23;18.70;58.70
5520;DHT22;2782;52.362;10.012;2024-01-06T04:27:23;18.70;58.70
5520;DHT22;2782;52.362;10.012;2024-01-06T04:28:25;18.80;58.80
5520;DHT22;2782;52.362;10.012;2024-01-06T04:29:26;18.70;58.70
5520;DHT22;2782;52.362;10.012;2024-01-06T04:30:26;18.70;58.70
5520;DHT22;2782;52.362;10.012;2024-01-06T04:31:28;18.70;58.70
5520;DHT22;2782;52.362;10.012;2024-01-06T04:32:28;18.70;58.70
5520;DHT22;2782;52.362;10.012;2024-01-06T04:33:30;18.70;58.70
5520;DHT22;2782;52.362;10.012;2024-01-06T04:34:31;18.70;58.70
5520;DHT22;2782;52.362;10.012;2024-01-06T04:35:33;18.70;58.70
5520;DHT22;2782;52.362;10.012;2024-01-06T04:36:33;18.70;58.70
5520;DHT22;2782;52.362;10.012;2024-01-06T04:37:35;18.70;58.70
5520;DHT22;2782;52.362;10.012;2024-01-06T04:38:36;18.70;58.70
5520;DHT22;2782;52.362;10.012;2024-01-06T04:39:37;18.70;58.70
5520;DHT22;2782;52.362;10.012;2024-01-06T04:40:40;18.70;58.70
5520;DHT22;2782;52.362;10.012;2024-01-06T04:41:41;18.70;58.70
5520;DHT22;2782;52.362;10.012;2024-01-06T04:42:42;18.70;58.70
5520;DHT22;2782;52.362;10.012;2024-01-06T04:43:43;18.70;58.70
5520;DHT22;2782;52.362;10.012;2024-01-06T04:44:44;18.70;58.70
5520;DHT22;2782;52.362;10.012;2024-01-06T04:45:45;18.70;58.70
5520;DHT22;2782;52.362;10.012;2024-01-06T04:46:46;18.70;58.70
5520;DHT22;2782;52.362;10.012;2024-01-06T04:47:47;18.70;58.70
5520;DHT22;2782;52.362;10.012;2024-01-06T04:48:48;18.70;58.70
5520;DHT22;2782;52.362;10.012;2024-01-06T04:49:49;18.70;58.70
5520;DHT22;2782;52.362;10.012;2024-01-06T04:50:51;18.70;58.70
5520;DHT22;2782;52.362;10.012;2024-01-06T04:51:51;18.70;58.70
5520;DHT22;2782;52.362;10.012;2024-01-06T04:52:53;18.60;58.70
5520;DHT22;2782;52.362;10.012;2024-01-06T04:53:54;18.60;58.70
5520;DHT22;2782;52.362;10.012;2024-01-06T04:54:55;18.60;58.70
5520;DHT22;2782;52.362;10.012;2024-01-06T04:55:57;18.60;58.70
5520;DHT22;2782;52.362;10.012;2024-01-06T04:57:04;18.60;58.70
5520;DHT22;2782;52.362;10.012;2024-01-06T04:58:06;18.60;58.70
5520;DHT22;2782;52.362;10.012;2024-01-06T04:59:08;18.60;58.70
5520;DHT22;2782;52.362;10.012;2024-01-06T05:00:09;18.60;58.70
5520;DHT22;2782;52.362;10.012;2024-01-06T05:01:11;18.60;58.50
5520;DHT22;2782;52.362;10.012;2024-01-06T05:02:12;18.60;58.30
5520;DHT22;2782;52.362;10.012;2024-01-06T05:03:14;18.60;58.30
5520;DHT22;2782;52.362;10.012;2024-01-06T05:04:14;18.60;58.40
5520;DHT22;2782;52.362;10.012;2024-01-06T05:05:16;18.60;58.60
5520;DHT22;2782;52.362;10.012;2024-01-06T05:06:16;18.60;58.60
5520;DHT22;2782;52.362;10.012;2024-01-06T05:07:18;18.60;58.50
5520;DHT22;2782;52.362;10.012;2024-01-06T05:08:19;18.60;58.50
5520;DHT22;2782;52.362;10.012;2024-01-06T05:09:22;18.60;58.50
5520;DHT22;2782;52.362;10.012;2024-01-06T05:10:23;18.60;58.60
5520;DHT22;2782;52.362;10.012;2024-01-06T05:11:26;18.60;58.60
5520;DHT22;2782;52.362;10.012;2024-01-06T05:12:26;18.60;58.60
5520;DHT22;2782;52.362;10.012;2024-01-06T05:13:28;18.60;58.60
5520;DHT22;2782;52.362;10.012;2024-01-06T05:14:29;18.50;58.50
5520;DHT22;2782;52.362;10.012;2024-01-06T05:15:30;18.60;58.60
5520;DHT22;2782;52.362;10.012;2024-01-06T05:16:31;18.50;58.60
5520;DHT22;2782;52.362;10.012;2024-01-06T05:17:33;18.50;58.50
5520;DHT22;2782;52.362;10.012;2024-01-06T05:18:33;18.50;58.60
5520;DHT22;2782;52.362;10.012;2024-01-06T05:19:35;18.50;58.60
5520;DHT22;2782;52.362;10.012;2024-01-06T05:20:36;18.60;58.70
5520;DHT22;2782;52.362;10.012;2024-01-06T05:21:37;18.50;58.60
5520;DHT22;2782;52.362;10.012;2024-01-06T05:22:38;18.60;58.60
5520;DHT22;2782;52.362;10.012;2024-01-06T05:23:40;18.60;58.60
5520;DHT22;2782;52.362;10.012;2024-01-06T05:24:40;18.50;58.60
5520;DHT22;2782;52.362;10.012;2024-01-06T05:25:42;18.50;58.50
5520;DHT22;2782;52.362;10.012;2024-01-06T05:26:44;18.50;58.60
5520;DHT22;2782;52.362;10.012;2024-01-06T05:27:45;18.50;58.60
5520;DHT22;2782;52.362;10.012;2024-01-06T05:28:46;18.50;58.60
5520;DHT22;2782;52.362;10.012;2024-01-06T05:29:47;18.50;58.60
5520;DHT22;2782;52.362;10.012;2024-01-06T05:30:49;18.50;58.60
5520;DHT22;2782;52.362;10.012;2024-01-06T05:31:51;18.50;58.60
5520;DHT22;2782;52.362;10.012;2024-01-06T05:32:52;18.50;58.60
5520;DHT22;2782;52.362;10.012;2024-01-06T05:33:54;18.50;58.60
5520;DHT22;2782;52.362;10.012;2024-01-06T05:34:55;18.50;58.60
5520;DHT22;2782;52.362;10.012;2024-01-06T05:35:56;18.50;58.60
5520;DHT22;2782;52.362;10.012;2024-01-06T05:36:57;18.50;58.60
5520;DHT22;2782;52.362;10.012;2024-01-06T05:37:58;18.50;58.60
5520;DHT22;2782;52.362;10.012;2024-01-06T05:38:59;18.50;58.60
5520;DHT22;2782;52.362;10.012;2024-01-06T05:40:01;18.50;58.60
5520;DHT22;2782;52.362;10.012;2024-01-06T05:41:04;18.50;58.60
5520;DHT22;2782;52.362;10.012;2024-01-06T05:42:09;18.40;58.50
5520;DHT22;2782;52.362;10.012;2024-01-06T05:43:10;18.50;58.60
5520;DHT22;2782;52.362;10.012;2024-01-06T05:44:12;18.50;58.60
5520;DHT22;2782;52.362;10.012;2024-01-06T05:45:13;18.40;58.50
5520;DHT22;2782;52.362;10.012;2024-01-06T05:46:20;18.40;58.60
5520;DHT22;2782;52.362;10.012;2024-01-06T05:47:21;18.40;58.50
5520;DHT22;2782;52.362;10.012;2024-01-06T05:48:23;18.50;58.60
5520;DHT22;2782;52.362;10.012;2024-01-06T05:49:24;18.40;58.50
5520;DHT22;2782;52.362;10.012;2024-01-06T05:50:25;18.40;58.50
5520;DHT22;2782;52.362;10.012;2024-01-06T05:51:26;18.40;58.50
5520;DHT22;2782;52.362;10.012;2024-01-06T05:52:27;18.50;58.60
5520;DHT22;2782;52.362;10.012;2024-01-06T05:53:28;18.40;58.50
5520;DHT22;2782;52.362;10.012;2024-01-06T05:54:30;18.40;58.50
5520;DHT22;2782;52.362;10.012;2024-01-06T05:55:31;18.50;58.60
5520;DHT22;2782;52.362;10.012;2024-01-06T05:56:32;18.50;58.60
5520;DHT22;2782;52.362;10.012;2024-01-06T05:57:34;18.40;58.50
5520;DHT22;2782;52.362;10.012;2024-01-06T05:58:36;18.40;58.50
5520;DHT22;2782;52.362;10.012;2024-01-06T05:59:36;18.40;58.50
5520;DHT22;2782;52.362;10.012;2024-01-06T06:00:38;18.50;58.60
5520;DHT22;2782;52.362;10.012;2024-01-06T06:01:39;18.50;58.60
5520;DHT22;2782;52.362;10.012;2024-01-06T06:02:40;18.50;58.60
5520;DHT22;2782;52.362;10.012;2024-01-06T06:03:41;18.50;58.60
5520;DHT22;2782;52.362;10.012;2024-01-06T06:04:43;18.40;58.50
5520;DHT22;2782;52.362;10.012;2024-01-06T06:05:44;18.40;58.50
5520;DHT22;2782;52.362;10.012;2024-01-06T06:06:46;18.40;58.50
5520;DHT22;2782;52.362;10.012;2024-01-06T06:07:46;18.40;58.60
5520;DHT22;2782;52.362;10.012;2024-01-06T06:08:48;18.40;58.50
5520;DHT22;2782;52.362;10.012;2024-01-06T06:09:49;18.40;58.50
5520;DHT22;2782;52.362;10.012;2024-01-06T06:10:50;18.40;58.50
5520;DHT22;2782;52.362;10.012;2024-01-06T06:12:01;18.40;58.50
5520;DHT22;2782;52.362;10.012;2024-01-06T06:13:04;18.40;58.50
5520;DHT22;2782;52.362;10.012;2024-01-06T06:14:04;18.40;58.50
5520;DHT22;2782;52.362;10.012;2024-01-06T06:15:07;18.40;58.50
5520;DHT22;2782;52.362;10.012;2024-01-06T06:16:09;18.40;58.40
5520;DHT22;2782;52.362;10.012;2024-01-06T06:17:12;18.40;58.50
5520;DHT22;2782;52.362;10.012;2024-01-06T06:18:13;18.40;58.50
5520;DHT22;2782;52.362;10.012;2024-01-06T06:19:14;18.40;58.50
5520;DHT22;2782;52.362;10.012;2024-01-06T06:20:15;18.40;58.50
5520;DHT22;2782;52.362;10.012;2024-01-06T06:21:16;18.40;58.40
5520;DHT22;2782;52.362;10.012;2024-01-06T06:22:17;18.40;58.40
5520;DHT22;2782;52.362;10.012;2024-01-06T06:23:18;18.40;58.40
5520;DHT22;2782;52.362;10.012;2024-01-06T06:24:19;18.40;58.40
5520;DHT22;2782;52.362;10.012;2024-01-06T06:25:20;18.40;58.40
5520;DHT22;2782;52.362;10.012;2024-01-06T06:26:21;18.40;58.40
5520;DHT22;2782;52.362;10.012;2024-01-06T06:27:23;18.40;58.40
5520;DHT22;2782;52.362;10.012;2024-01-06T06:28:25;18.40;58.40
5520;DHT22;2782;52.362;10.012;2024-01-06T06:29:27;18.40;58.40
5520;DHT22;2782;52.362;10.012;2024-01-06T06:30:29;18.40;58.40
5520;DHT22;2782;52.362;10.012;2024-01-06T06:31:30;18.40;58.40
5520;DHT22;2782;52.362;10.012;2024-01-06T06:32:31;18.40;58.40
5520;DHT22;2782;52.362;10.012;2024-01-06T06:33:33;18.40;58.40
5520;DHT22;2782;52.362;10.012;2024-01-06T06:34:33;18.40;58.30
5520;DHT22;2782;52.362;10.012;2024-01-06T06:35:35;18.40;58.30
5520;DHT22;2782;52.362;10.012;2024-01-06T06:36:36;18.40;58.30
5520;DHT22;2782;52.362;10.012;2024-01-06T06:37:38;18.40;58.40